sensor_id;sensor_type;location;lat;lon;timestamp;pressure;altitude;pressure_sealevel;temperature;humidity
43071;BME280;36278;47.952;21.714;2023-04-21T00:00:31;100270.75;;;10.07;66.76
43071;BME280;36278;47.952;21.714;2023-04-21T00:02:57;100279.53;;;10.07;66.91
43071;BME280;36278;47.952;21.714;2023-04-21T00:05:23;100274.22;;;10.07;67.81
43071;BME280;36278;47.952;21.714;2023-04-21T00:07:48;100275.06;;;10.08;67.26
43071;BME280;36278;47.952;21.714;2023-04-21T00:10:14;100278.06;;;10.03;67.60
43071;BME280;36278;47.952;21.714;2023-04-21T00:12:40;100272.03;;;10.01;67.21
43071;BME280;36278;47.952;21.714;2023-04-21T00:15:06;100268.78;;;9.98;67.18
43071;BME280;36278;47.952;21.714;2023-04-21T00:17:31;100276.72;;;9.98;66.87
43071;BME280;36278;47.952;21.714;2023-04-21T00:19:57;100273.47;;;9.94;67.24
43071;BME280;36278;47.952;21.714;2023-04-21T00:22:23;100271.38;;;9.87;67.38
43071;BME280;36278;47.952;21.714;2023-04-21T00:24:48;100270.19;;;9.91;67.22
43071;BME280;36278;47.952;21.714;2023-04-21T00:27:14;100272.22;;;9.87;67.39
43071;BME280;36278;47.952;21.714;2023-04-21T00:29:40;100269.47;;;9.89;67.82
43071;BME280;36278;47.952;21.714;2023-04-21T00:32:06;100264.88;;;9.91;67.05
43071;BME280;36278;47.952;21.714;2023-04-21T00:34:35;100269.56;;;9.87;66.85
43071;BME280;36278;47.952;21.714;2023-04-21T00:37:02;100273.28;;;9.84;67.40
43071;BME280;36278;47.952;21.714;2023-04-21T00:39:27;100273.91;;;9.88;67.35
43071;BME280;36278;47.952;21.714;2023-04-21T00:41:53;100270.41;;;9.88;66.94
43071;BME280;36278;47.952;21.714;2023-04-21T00:44:18;100269.22;;;9.92;66.78
43071;BME280;36278;47.952;21.714;2023-04-21T00:46:43;100264.50;;;9.84;67.50
43071;BME280;36278;47.952;21.714;2023-04-21T00:49:09;100266.19;;;9.85;67.39
43071;BME280;36278;47.952;21.714;2023-04-21T00:51:35;100273.66;;;9.91;67.13
43071;BME280;36278;47.952;21.714;2023-04-21T00:54:03;100266.94;;;9.87;67.87
43071;BME280;36278;47.952;21.714;2023-04-21T00:56:30;100266.66;;;9.79;68.27
43071;BME280;36278;47.952;21.714;2023-04-21T00:58:58;100260.13;;;9.72;68.13
43071;BME280;36278;47.952;21.714;2023-04-21T01:01:24;100259.59;;;9.67;68.87
43071;BME280;36278;47.952;21.714;2023-04-21T01:03:50;100260.03;;;9.61;68.15
43071;BME280;36278;47.952;21.714;2023-04-21T01:06:16;100262.69;;;9.61;68.80
43071;BME280;36278;47.952;21.714;2023-04-21T01:08:44;100265.78;;;9.54;69.36
43071;BME280;36278;47.952;21.714;2023-04-21T01:11:11;100260.69;;;9.51;69.26
43071;BME280;36278;47.952;21.714;2023-04-21T01:13:37;100259.84;;;9.51;69.42
43071;BME280;36278;47.952;21.714;2023-04-21T01:16:03;100253.22;;;9.45;70.23
43071;BME280;36278;47.952;21.714;2023-04-21T01:18:29;100252.59;;;9.42;69.63
43071;BME280;36278;47.952;21.714;2023-04-21T01:20:55;100249.47;;;9.37;70.60
43071;BME280;36278;47.952;21.714;2023-04-21T01:23:22;100251.75;;;9.41;70.82
43071;BME280;36278;47.952;21.714;2023-04-21T01:25:49;100256.91;;;9.43;70.85
43071;BME280;36278;47.952;21.714;2023-04-21T01:28:20;100258.00;;;9.40;70.15
43071;BME280;36278;47.952;21.714;2023-04-21T01:30:46;100253.25;;;9.33;70.30
43071;BME280;36278;47.952;21.714;2023-04-21T01:33:12;100242.69;;;9.20;71.14
43071;BME280;36278;47.952;21.714;2023-04-21T01:35:37;100250.63;;;9.20;71.52
43071;BME280;36278;47.952;21.714;2023-04-21T01:38:03;100250.31;;;9.12;72.03
43071;BME280;36278;47.952;21.714;2023-04-21T01:40:28;100251.63;;;9.06;72.85
43071;BME280;36278;47.952;21.714;2023-04-21T01:42:53;100245.69;;;9.03;72.22
43071;BME280;36278;47.952;21.714;2023-04-21T01:45:19;100239.56;;;9.02;72.84
43071;BME280;36278;47.952;21.714;2023-04-21T01:47:45;100238.94;;;8.98;72.51
43071;BME280;36278;47.952;21.714;2023-04-21T01:50:10;100239.25;;;8.94;72.62
43071;BME280;36278;47.952;21.714;2023-04-21T01:52:36;100243.94;;;8.90;73.07
43071;BME280;36278;47.952;21.714;2023-04-21T01:55:02;100249.31;;;8.89;73.27
43071;BME280;36278;47.952;21.714;2023-04-21T01:57:27;100251.13;;;8.88;73.59
43071;BME280;36278;47.952;21.714;2023-04-21T01:59:53;100247.84;;;8.85;73.60
43071;BME280;36278;47.952;21.714;2023-04-21T02:02:18;100245.06;;;8.86;73.81
43071;BME280;36278;47.952;21.714;2023-04-21T02:04:43;100245.41;;;8.82;74.23
43071;BME280;36278;47.952;21.714;2023-04-21T02:07:09;100248.91;;;8.82;74.38
43071;BME280;36278;47.952;21.714;2023-04-21T02:09:34;100242.78;;;8.82;73.75
43071;BME280;36278;47.952;21.714;2023-04-21T02:12:00;100253.22;;;8.83;73.75
43071;BME280;36278;47.952;21.714;2023-04-21T02:14:26;100240.97;;;8.82;74.13
43071;BME280;36278;47.952;21.714;2023-04-21T02:16:52;100246.44;;;8.79;74.38
43071;BME280;36278;47.952;21.714;2023-04-21T02:19:17;100241.16;;;8.79;74.30
43071;BME280;36278;47.952;21.714;2023-04-21T02:21:43;100250.03;;;8.78;74.38
43071;BME280;36278;47.952;21.714;2023-04-21T02:24:08;100245.72;;;8.77;74.75
43071;BME280;36278;47.952;21.714;2023-04-21T02:26:33;100240.97;;;8.82;74.41
43071;BME280;36278;47.952;21.714;2023-04-21T02:28:59;100251.44;;;8.84;74.98
43071;BME280;36278;47.952;21.714;2023-04-21T02:31:25;100246.16;;;8.84;74.69
43071;BME280;36278;47.952;21.714;2023-04-21T02:33:50;100244.47;;;8.83;74.69
43071;BME280;36278;47.952;21.714;2023-04-21T02:36:15;100233.06;;;8.82;74.57
43071;BME280;36278;47.952;21.714;2023-04-21T02:38:41;100250.59;;;8.83;74.79
43071;BME280;36278;47.952;21.714;2023-04-21T02:41:06;100253.44;;;8.80;75.49
43071;BME280;36278;47.952;21.714;2023-04-21T02:43:32;100230.00;;;8.76;74.70
43071;BME280;36278;47.952;21.714;2023-04-21T02:45:57;100250.88;;;8.79;74.91
43071;BME280;36278;47.952;21.714;2023-04-21T02:48:23;100255.25;;;8.80;75.19
43071;BME280;36278;47.952;21.714;2023-04-21T02:50:49;100238.88;;;8.75;74.65
43071;BME280;36278;47.952;21.714;2023-04-21T02:53:15;100247.75;;;8.74;75.71
43071;BME280;36278;47.952;21.714;2023-04-21T02:55:41;100242.56;;;8.72;75.34
43071;BME280;36278;47.952;21.714;2023-04-21T02:58:06;100237.28;;;8.72;75.78
43071;BME280;36278;47.952;21.714;2023-04-21T03:00:32;100242.47;;;8.74;75.62
43071;BME280;36278;47.952;21.714;2023-04-21T03:02:57;100236.22;;;8.75;75.71
43071;BME280;36278;47.952;21.714;2023-04-21T03:05:23;100229.56;;;8.69;76.27
43071;BME280;36278;47.952;21.714;2023-04-21T03:07:48;100234.66;;;8.72;76.04
43071;BME280;36278;47.952;21.714;2023-04-21T03:10:14;100241.94;;;8.81;75.43
43071;BME280;36278;47.952;21.714;2023-04-21T03:12:39;100241.28;;;8.78;75.87
43071;BME280;36278;47.952;21.714;2023-04-21T03:15:05;100244.56;;;8.81;75.20
43071;BME280;36278;47.952;21.714;2023-04-21T03:17:31;100248.38;;;8.90;75.05
43071;BME280;36278;47.952;21.714;2023-04-21T03:19:56;100224.06;;;8.85;75.68
43071;BME280;36278;47.952;21.714;2023-04-21T03:22:21;100238.75;;;8.89;75.42
43071;BME280;36278;47.952;21.714;2023-04-21T03:24:47;100233.97;;;8.94;75.25
43071;BME280;36278;47.952;21.714;2023-04-21T03:27:12;100247.28;;;9.05;74.36
43071;BME280;36278;47.952;21.714;2023-04-21T03:29:38;100249.28;;;9.14;73.90
43071;BME280;36278;47.952;21.714;2023-04-21T03:32:03;100241.78;;;9.21;73.80
43071;BME280;36278;47.952;21.714;2023-04-21T03:34:29;100239.50;;;9.27;74.30
43071;BME280;36278;47.952;21.714;2023-04-21T03:36:54;100241.72;;;9.34;73.91
43071;BME280;36278;47.952;21.714;2023-04-21T03:39:20;100248.69;;;9.35;73.85
43071;BME280;36278;47.952;21.714;2023-04-21T03:41:46;100251.03;;;9.39;73.96
43071;BME280;36278;47.952;21.714;2023-04-21T03:44:12;100246.47;;;9.41;73.40
43071;BME280;36278;47.952;21.714;2023-04-21T03:46:37;100245.91;;;9.49;72.80
43071;BME280;36278;47.952;21.714;2023-04-21T03:49:03;100252.34;;;9.58;72.66
43071;BME280;36278;47.952;21.714;2023-04-21T03:51:28;100252.97;;;9.61;72.23
43071;BME280;36278;47.952;21.714;2023-04-21T03:53:53;100252.38;;;9.69;71.77
43071;BME280;36278;47.952;21.714;2023-04-21T03:56:19;100254.47;;;9.76;71.75
43071;BME280;36278;47.952;21.714;2023-04-21T03:58:44;100257.97;;;9.77;71.44
43071;BME280;36278;47.952;21.714;2023-04-21T04:01:10;100260.41;;;9.80;71.64
43071;BME280;36278;47.952;21.714;2023-04-21T04:03:35;100262.09;;;9.81;71.99
43071;BME280;36278;47.952;21.714;2023-04-21T04:06:01;100265.44;;;9.83;72.28
43071;BME280;36278;47.952;21.714;2023-04-21T04:08:28;100265.13;;;9.88;71.77
43071;BME280;36278;47.952;21.714;2023-04-21T04:10:54;100262.25;;;9.91;71.93
43071;BME280;36278;47.952;21.714;2023-04-21T04:13:20;100270.34;;;10.00;71.65
43071;BME280;36278;47.952;21.714;2023-04-21T04:15:47;100272.91;;;10.02;71.67
43071;BME280;36278;47.952;21.714;2023-04-21T04:18:12;100265.31;;;10.08;71.18
43071;BME280;36278;47.952;21.714;2023-04-21T04:20:38;100266.81;;;10.13;71.08
43071;BME280;36278;47.952;21.714;2023-04-21T04:23:03;100273.34;;;10.20;70.73
43071;BME280;36278;47.952;21.714;2023-04-21T04:25:29;100271.09;;;10.26;70.85
43071;BME280;36278;47.952;21.714;2023-04-21T04:27:55;100270.41;;;10.35;70.01
43071;BME280;36278;47.952;21.714;2023-04-21T04:30:21;100269.44;;;10.36;69.79
43071;BME280;36278;47.952;21.714;2023-04-21T04:32:48;100272.47;;;10.43;69.54
43071;BME280;36278;47.952;21.714;2023-04-21T04:35:13;100274.88;;;10.46;70.51
43071;BME280;36278;47.952;21.714;2023-04-21T04:37:40;100283.94;;;10.55;69.92
43071;BME280;36278;47.952;21.714;2023-04-21T04:40:06;100277.47;;;10.59;70.25
43071;BME280;36278;47.952;21.714;2023-04-21T04:42:36;100279.97;;;10.60;70.10
43071;BME280;36278;47.952;21.714;2023-04-21T04:45:04;100282.03;;;10.68;68.77
43071;BME280;36278;47.952;21.714;2023-04-21T04:47:30;100282.03;;;10.68;69.69
43071;BME280;36278;47.952;21.714;2023-04-21T04:49:55;100288.66;;;10.74;68.96
43071;BME280;36278;47.952;21.714;2023-04-21T04:52:21;100288.44;;;10.77;68.92
43071;BME280;36278;47.952;21.714;2023-04-21T04:54:46;100284.38;;;10.84;68.45
43071;BME280;36278;47.952;21.714;2023-04-21T04:57:12;100288.09;;;10.92;67.99
43071;BME280;36278;47.952;21.714;2023-04-21T04:59:37;100287.97;;;10.94;68.37
43071;BME280;36278;47.952;21.714;2023-04-21T05:02:03;100292.81;;;11.00;67.51
43071;BME280;36278;47.952;21.714;2023-04-21T05:04:28;100284.47;;;11.05;67.61
43071;BME280;36278;47.952;21.714;2023-04-21T05:06:54;100286.19;;;11.17;67.31
43071;BME280;36278;47.952;21.714;2023-04-21T05:09:19;100283.88;;;11.23;65.91
43071;BME280;36278;47.952;21.714;2023-04-21T05:11:45;100282.44;;;11.31;66.47
43071;BME280;36278;47.952;21.714;2023-04-21T05:14:10;100282.19;;;11.45;66.60
43071;BME280;36278;47.952;21.714;2023-04-21T05:16:36;100287.22;;;11.59;65.56
43071;BME280;36278;47.952;21.714;2023-04-21T05:19:02;100289.84;;;11.70;65.35
43071;BME280;36278;47.952;21.714;2023-04-21T05:21:28;100284.44;;;11.83;65.14
43071;BME280;36278;47.952;21.714;2023-04-21T05:23:54;100285.22;;;11.95;64.35
43071;BME280;36278;47.952;21.714;2023-04-21T05:26:21;100280.84;;;12.05;63.79
43071;BME280;36278;47.952;21.714;2023-04-21T05:28:47;100283.72;;;12.13;62.60
43071;BME280;36278;47.952;21.714;2023-04-21T05:31:12;100286.56;;;12.21;62.38
43071;BME280;36278;47.952;21.714;2023-04-21T05:33:37;100275.44;;;12.27;62.48
43071;BME280;36278;47.952;21.714;2023-04-21T05:36:07;100292.00;;;12.31;62.79
43071;BME280;36278;47.952;21.714;2023-04-21T05:38:33;100297.69;;;12.26;62.37
43071;BME280;36278;47.952;21.714;2023-04-21T05:40:59;100296.47;;;12.30;62.64
43071;BME280;36278;47.952;21.714;2023-04-21T05:43:25;100283.63;;;12.35;62.33
43071;BME280;36278;47.952;21.714;2023-04-21T05:45:51;100291.66;;;12.45;61.46
43071;BME280;36278;47.952;21.714;2023-04-21T05:48:16;100296.47;;;12.51;61.52
43071;BME280;36278;47.952;21.714;2023-04-21T05:50:42;100289.66;;;12.58;61.03
43071;BME280;36278;47.952;21.714;2023-04-21T05:53:07;100293.50;;;12.66;60.61
43071;BME280;36278;47.952;21.714;2023-04-21T05:55:34;100288.75;;;12.69;60.59
43071;BME280;36278;47.952;21.714;2023-04-21T05:57:59;100282.34;;;12.72;60.49
43071;BME280;36278;47.952;21.714;2023-04-21T06:00:25;100280.13;;;12.77;60.57
43071;BME280;36278;47.952;21.714;2023-04-21T06:02:50;100275.44;;;12.90;59.54
43071;BME280;36278;47.952;21.714;2023-04-21T06:05:16;100275.19;;;12.93;61.06
43071;BME280;36278;47.952;21.714;2023-04-21T06:07:42;100277.78;;;13.04;60.36
43071;BME280;36278;47.952;21.714;2023-04-21T06:10:12;100283.97;;;13.14;60.03
43071;BME280;36278;47.952;21.714;2023-04-21T06:12:38;100278.78;;;13.13;59.46
43071;BME280;36278;47.952;21.714;2023-04-21T06:15:05;100286.47;;;13.37;58.81
43071;BME280;36278;47.952;21.714;2023-04-21T06:17:31;100285.63;;;13.36;58.64
43071;BME280;36278;47.952;21.714;2023-04-21T06:19:57;100283.41;;;13.41;59.96
43071;BME280;36278;47.952;21.714;2023-04-21T06:22:22;100289.94;;;13.28;58.75
43071;BME280;36278;47.952;21.714;2023-04-21T06:24:48;100283.22;;;13.33;59.63
43071;BME280;36278;47.952;21.714;2023-04-21T06:27:14;100279.66;;;13.44;59.20
43071;BME280;36278;47.952;21.714;2023-04-21T06:29:40;100275.75;;;13.58;57.93
43071;BME280;36278;47.952;21.714;2023-04-21T06:32:07;100275.91;;;13.75;58.36
43071;BME280;36278;47.952;21.714;2023-04-21T06:34:33;100270.31;;;13.69;57.91
43071;BME280;36278;47.952;21.714;2023-04-21T06:36:59;100277.03;;;13.73;58.35
43071;BME280;36278;47.952;21.714;2023-04-21T06:39:25;100259.53;;;13.90;58.40
43071;BME280;36278;47.952;21.714;2023-04-21T06:41:51;100263.88;;;14.00;58.00
43071;BME280;36278;47.952;21.714;2023-04-21T06:44:17;100258.56;;;14.29;57.29
43071;BME280;36278;47.952;21.714;2023-04-21T06:46:43;100256.75;;;14.49;56.04
43071;BME280;36278;47.952;21.714;2023-04-21T06:49:08;100262.22;;;14.67;55.71
43071;BME280;36278;47.952;21.714;2023-04-21T06:51:34;100263.72;;;14.70;56.17
43071;BME280;36278;47.952;21.714;2023-04-21T06:53:59;100258.94;;;14.83;56.24
43071;BME280;36278;47.952;21.714;2023-04-21T06:56:26;100260.59;;;14.94;55.39
43071;BME280;36278;47.952;21.714;2023-04-21T06:58:52;100257.94;;;14.84;56.45
43071;BME280;36278;47.952;21.714;2023-04-21T07:01:18;100265.03;;;15.03;54.75
43071;BME280;36278;47.952;21.714;2023-04-21T07:03:43;100258.03;;;15.02;54.55
43071;BME280;36278;47.952;21.714;2023-04-21T07:06:09;100253.69;;;15.01;54.93
43071;BME280;36278;47.952;21.714;2023-04-21T07:08:35;100260.06;;;15.18;55.12
43071;BME280;36278;47.952;21.714;2023-04-21T07:11:00;100258.88;;;15.30;54.25
43071;BME280;36278;47.952;21.714;2023-04-21T07:13:26;100258.41;;;15.44;53.43
43071;BME280;36278;47.952;21.714;2023-04-21T07:15:51;100257.41;;;15.45;53.89
43071;BME280;36278;47.952;21.714;2023-04-21T07:18:17;100252.63;;;15.49;52.94
43071;BME280;36278;47.952;21.714;2023-04-21T07:20:42;100251.56;;;15.59;52.39
43071;BME280;36278;47.952;21.714;2023-04-21T07:23:08;100261.47;;;15.77;53.00
43071;BME280;36278;47.952;21.714;2023-04-21T07:25:34;100256.44;;;15.91;51.25
43071;BME280;36278;47.952;21.714;2023-04-21T07:27:59;100258.13;;;15.75;49.92
43071;BME280;36278;47.952;21.714;2023-04-21T07:30:27;100250.25;;;15.91;49.85
43071;BME280;36278;47.952;21.714;2023-04-21T07:32:53;100246.66;;;15.64;50.61
43071;BME280;36278;47.952;21.714;2023-04-21T07:35:18;100237.81;;;15.64;51.24
43071;BME280;36278;47.952;21.714;2023-04-21T07:37:44;100242.03;;;15.57;52.02
43071;BME280;36278;47.952;21.714;2023-04-21T07:40:09;100242.84;;;15.67;51.01
43071;BME280;36278;47.952;21.714;2023-04-21T07:42:35;100240.56;;;15.90;51.33
43071;BME280;36278;47.952;21.714;2023-04-21T07:45:02;100231.41;;;16.10;50.80
43071;BME280;36278;47.952;21.714;2023-04-21T07:47:28;100232.06;;;16.12;51.41
43071;BME280;36278;47.952;21.714;2023-04-21T07:49:53;100232.50;;;16.43;49.98
43071;BME280;36278;47.952;21.714;2023-04-21T07:52:19;100238.13;;;16.58;48.40
43071;BME280;36278;47.952;21.714;2023-04-21T07:54:44;100228.03;;;16.52;47.09
43071;BME280;36278;47.952;21.714;2023-04-21T07:57:10;100248.28;;;16.72;45.75
43071;BME280;36278;47.952;21.714;2023-04-21T07:59:35;100250.56;;;16.67;46.38
43071;BME280;36278;47.952;21.714;2023-04-21T08:02:01;100238.91;;;16.94;45.38
43071;BME280;36278;47.952;21.714;2023-04-21T08:04:26;100251.66;;;17.08;45.37
43071;BME280;36278;47.952;21.714;2023-04-21T08:06:52;100247.16;;;17.09;44.29
43071;BME280;36278;47.952;21.714;2023-04-21T08:09:18;100247.94;;;17.01;45.37
43071;BME280;36278;47.952;21.714;2023-04-21T08:11:43;100248.72;;;17.20;45.85
43071;BME280;36278;47.952;21.714;2023-04-21T08:14:11;100251.38;;;17.12;45.58
43071;BME280;36278;47.952;21.714;2023-04-21T08:16:38;100249.56;;;17.20;44.92
43071;BME280;36278;47.952;21.714;2023-04-21T08:19:08;100247.91;;;16.93;44.32
43071;BME280;36278;47.952;21.714;2023-04-21T08:21:34;100249.34;;;17.14;44.62
43071;BME280;36278;47.952;21.714;2023-04-21T08:23:59;100243.75;;;17.33;44.20
43071;BME280;36278;47.952;21.714;2023-04-21T08:26:25;100229.34;;;17.34;44.41
43071;BME280;36278;47.952;21.714;2023-04-21T08:28:52;100236.88;;;17.30;43.97
43071;BME280;36278;47.952;21.714;2023-04-21T08:31:18;100239.75;;;17.37;43.48
43071;BME280;36278;47.952;21.714;2023-04-21T08:33:44;100240.72;;;17.70;44.61
43071;BME280;36278;47.952;21.714;2023-04-21T08:36:10;100228.44;;;17.59;43.35
43071;BME280;36278;47.952;21.714;2023-04-21T08:38:36;100228.53;;;17.76;43.72
43071;BME280;36278;47.952;21.714;2023-04-21T08:41:03;100227.16;;;17.72;42.80
43071;BME280;36278;47.952;21.714;2023-04-21T08:43:29;100224.16;;;17.83;44.43
43071;BME280;36278;47.952;21.714;2023-04-21T08:45:55;100226.69;;;17.84;43.34
43071;BME280;36278;47.952;21.714;2023-04-21T08:48:21;100219.00;;;18.14;43.26
43071;BME280;36278;47.952;21.714;2023-04-21T08:50:51;100224.88;;;18.42;42.11
43071;BME280;36278;47.952;21.714;2023-04-21T08:53:18;100215.97;;;18.74;43.04
43071;BME280;36278;47.952;21.714;2023-04-21T08:55:45;100222.00;;;18.35;42.11
43071;BME280;36278;47.952;21.714;2023-04-21T08:58:11;100209.59;;;18.59;42.42
43071;BME280;36278;47.952;21.714;2023-04-21T09:00:37;100211.56;;;18.81;42.49
43071;BME280;36278;47.952;21.714;2023-04-21T09:03:05;100201.94;;;19.03;41.88
43071;BME280;36278;47.952;21.714;2023-04-21T09:05:33;100204.38;;;19.21;40.43
43071;BME280;36278;47.952;21.714;2023-04-21T09:08:12;100207.13;;;19.44;39.79
43071;BME280;36278;47.952;21.714;2023-04-21T09:10:45;100207.50;;;19.72;39.19
43071;BME280;36278;47.952;21.714;2023-04-21T09:13:12;100206.19;;;19.68;40.05
43071;BME280;36278;47.952;21.714;2023-04-21T09:15:43;100212.34;;;19.99;40.25
43071;BME280;36278;47.952;21.714;2023-04-21T09:18:12;100206.47;;;20.19;39.74
43071;BME280;36278;47.952;21.714;2023-04-21T09:20:37;100200.81;;;19.68;40.20
43071;BME280;36278;47.952;21.714;2023-04-21T09:23:04;100195.56;;;19.97;39.66
43071;BME280;36278;47.952;21.714;2023-04-21T09:25:31;100197.88;;;19.77;39.00
43071;BME280;36278;47.952;21.714;2023-04-21T09:27:59;100201.66;;;19.91;38.56
43071;BME280;36278;47.952;21.714;2023-04-21T09:30:25;100192.50;;;19.46;37.93
43071;BME280;36278;47.952;21.714;2023-04-21T09:32:55;100192.38;;;19.71;38.95
43071;BME280;36278;47.952;21.714;2023-04-21T09:35:27;100183.78;;;19.75;37.68
43071;BME280;36278;47.952;21.714;2023-04-21T09:37:53;100183.31;;;19.95;37.97
43071;BME280;36278;47.952;21.714;2023-04-21T09:40:19;100185.78;;;20.04;37.60
43071;BME280;36278;47.952;21.714;2023-04-21T09:42:44;100186.81;;;19.95;37.51
43071;BME280;36278;47.952;21.714;2023-04-21T09:45:11;100187.00;;;19.94;37.88
43071;BME280;36278;47.952;21.714;2023-04-21T09:47:40;100189.56;;;20.10;36.70
43071;BME280;36278;47.952;21.714;2023-04-21T09:50:09;100183.31;;;20.32;36.35
43071;BME280;36278;47.952;21.714;2023-04-21T09:52:36;100185.88;;;20.49;37.09
43071;BME280;36278;47.952;21.714;2023-04-21T09:55:03;100187.16;;;20.38;35.75
43071;BME280;36278;47.952;21.714;2023-04-21T09:57:34;100185.22;;;20.09;36.14
43071;BME280;36278;47.952;21.714;2023-04-21T10:00:04;100183.38;;;19.86;36.87
43071;BME280;36278;47.952;21.714;2023-04-21T10:02:34;100177.41;;;19.99;37.56
43071;BME280;36278;47.952;21.714;2023-04-21T10:05:04;100175.47;;;20.08;37.06
43071;BME280;36278;47.952;21.714;2023-04-21T10:07:30;100170.34;;;19.98;37.88
43071;BME280;36278;47.952;21.714;2023-04-21T10:09:58;100174.03;;;20.20;37.90
43071;BME280;36278;47.952;21.714;2023-04-21T10:12:27;100166.53;;;20.53;36.29
43071;BME280;36278;47.952;21.714;2023-04-21T10:14:54;100173.00;;;20.21;36.90
43071;BME280;36278;47.952;21.714;2023-04-21T10:17:24;100173.88;;;20.36;37.34
43071;BME280;36278;47.952;21.714;2023-04-21T10:19:52;100165.41;;;20.25;37.06
43071;BME280;36278;47.952;21.714;2023-04-21T10:22:32;100160.38;;;20.59;37.51
43071;BME280;36278;47.952;21.714;2023-04-21T10:25:00;100158.06;;;20.86;36.57
43071;BME280;36278;47.952;21.714;2023-04-21T10:27:39;100153.78;;;20.91;36.80
43071;BME280;36278;47.952;21.714;2023-04-21T10:30:26;100156.84;;;20.88;35.39
43071;BME280;36278;47.952;21.714;2023-04-21T10:33:03;100141.72;;;21.02;35.54
43071;BME280;36278;47.952;21.714;2023-04-21T10:35:58;100147.22;;;20.94;36.69
43071;BME280;36278;47.952;21.714;2023-04-21T10:38:41;100147.66;;;20.83;34.60
43071;BME280;36278;47.952;21.714;2023-04-21T10:41:25;100140.41;;;20.83;34.98
43071;BME280;36278;47.952;21.714;2023-04-21T10:43:58;100151.84;;;20.56;33.40
43071;BME280;36278;47.952;21.714;2023-04-21T10:54:25;100129.41;;;21.14;32.06
43071;BME280;36278;47.952;21.714;2023-04-21T10:56:53;100119.88;;;21.12;34.40
43071;BME280;36278;47.952;21.714;2023-04-21T10:59:19;100116.50;;;21.61;33.20
43071;BME280;36278;47.952;21.714;2023-04-21T11:01:46;100122.56;;;21.91;32.73
43071;BME280;36278;47.952;21.714;2023-04-21T11:04:15;100118.31;;;22.03;32.18
43071;BME280;36278;47.952;21.714;2023-04-21T11:06:42;100121.31;;;22.08;32.16
43071;BME280;36278;47.952;21.714;2023-04-21T11:09:08;100121.22;;;22.29;31.77
43071;BME280;36278;47.952;21.714;2023-04-21T11:11:34;100117.59;;;22.44;30.17
43071;BME280;36278;47.952;21.714;2023-04-21T11:14:04;100122.53;;;22.68;30.80
43071;BME280;36278;47.952;21.714;2023-04-21T11:16:30;100109.09;;;22.47;30.33
43071;BME280;36278;47.952;21.714;2023-04-21T11:18:55;100114.03;;;22.36;30.90
43071;BME280;36278;47.952;21.714;2023-04-21T11:21:21;100102.34;;;22.64;30.21
43071;BME280;36278;47.952;21.714;2023-04-21T11:23:56;100103.34;;;22.91;29.66
43071;BME280;36278;47.952;21.714;2023-04-21T11:26:35;100125.38;;;21.82;30.82
43071;BME280;36278;47.952;21.714;2023-04-21T11:29:05;100117.63;;;21.73;31.69
43071;BME280;36278;47.952;21.714;2023-04-21T11:31:32;100110.06;;;22.32;30.13
43071;BME280;36278;47.952;21.714;2023-04-21T11:33:59;100116.44;;;22.94;29.70
43071;BME280;36278;47.952;21.714;2023-04-21T11:36:25;100115.69;;;23.20;29.21
43071;BME280;36278;47.952;21.714;2023-04-21T11:38:52;100094.03;;;23.88;29.99
43071;BME280;36278;47.952;21.714;2023-04-21T11:41:22;100102.25;;;24.59;28.35
43071;BME280;36278;47.952;21.714;2023-04-21T11:43:48;100095.72;;;24.86;27.75
43071;BME280;36278;47.952;21.714;2023-04-21T11:46:25;100091.84;;;25.52;26.81
43071;BME280;36278;47.952;21.714;2023-04-21T11:49:02;100106.88;;;24.25;28.21
43071;BME280;36278;47.952;21.714;2023-04-21T11:51:37;100104.72;;;22.11;30.34
43071;BME280;36278;47.952;21.714;2023-04-21T11:54:07;100103.91;;;23.34;29.41
43071;BME280;36278;47.952;21.714;2023-04-21T11:56:38;100100.88;;;23.90;29.09
43071;BME280;36278;47.952;21.714;2023-04-21T11:59:07;100098.34;;;23.69;28.73
43071;BME280;36278;47.952;21.714;2023-04-21T12:01:33;100094.00;;;24.27;28.27
43071;BME280;36278;47.952;21.714;2023-04-21T12:03:58;100098.69;;;24.78;27.62
43071;BME280;36278;47.952;21.714;2023-04-21T12:06:26;100092.00;;;24.74;26.43
43071;BME280;36278;47.952;21.714;2023-04-21T12:08:55;100087.19;;;25.66;25.74
43071;BME280;36278;47.952;21.714;2023-04-21T12:11:23;100084.84;;;26.81;24.31
43071;BME280;36278;47.952;21.714;2023-04-21T12:13:49;100084.88;;;26.38;25.77
43071;BME280;36278;47.952;21.714;2023-04-21T12:16:14;100076.72;;;27.41;24.34
43071;BME280;36278;47.952;21.714;2023-04-21T12:18:41;100071.03;;;28.66;23.86
43071;BME280;36278;47.952;21.714;2023-04-21T12:21:07;100076.09;;;28.74;23.01
43071;BME280;36278;47.952;21.714;2023-04-21T12:23:32;100077.72;;;26.98;24.44
43071;BME280;36278;47.952;21.714;2023-04-21T12:25:58;100072.09;;;25.00;26.24
43071;BME280;36278;47.952;21.714;2023-04-21T12:28:24;100088.41;;;23.96;28.09
43071;BME280;36278;47.952;21.714;2023-04-21T12:30:50;100077.38;;;23.97;26.74
43071;BME280;36278;47.952;21.714;2023-04-21T12:33:16;100070.16;;;26.27;25.87
43071;BME280;36278;47.952;21.714;2023-04-21T12:35:42;100068.72;;;27.16;25.37
43071;BME280;36278;47.952;21.714;2023-04-21T12:38:08;100073.03;;;27.35;24.69
43071;BME280;36278;47.952;21.714;2023-04-21T12:40:34;100057.91;;;27.81;24.06
43071;BME280;36278;47.952;21.714;2023-04-21T12:42:59;100076.78;;;25.25;26.48
43071;BME280;36278;47.952;21.714;2023-04-21T12:45:25;100067.94;;;24.26;27.70
43071;BME280;36278;47.952;21.714;2023-04-21T12:47:51;100069.38;;;23.43;28.83